sensor_id;sensor_type;location;lat;lon;timestamp;pressure;altitude;pressure_sealevel;temperature;humidity
71662;BME280;59500;49.588;18.018;2022-07-29T00:00:56;98232.69;;;16.98;67.82
71662;BME280;59500;49.588;18.018;2022-07-29T00:03:22;98234.09;;;16.94;67.78
71662;BME280;59500;49.588;18.018;2022-07-29T00:05:47;98232.81;;;16.83;68.47
71662;BME280;59500;49.588;18.018;2022-07-29T00:08:13;98231.28;;;16.74;68.48
71662;BME280;59500;49.588;18.018;2022-07-29T00:10:39;98242.22;;;16.72;68.67
71662;BME280;59500;49.588;18.018;2022-07-29T00:13:05;98243.06;;;16.73;68.78
71662;BME280;59500;49.588;18.018;2022-07-29T00:15:31;98237.69;;;16.73;68.97
71662;BME280;59500;49.588;18.018;2022-07-29T00:17:57;98242.03;;;16.74;69.39
71662;BME280;59500;49.588;18.018;2022-07-29T00:20:24;98244.13;;;16.79;68.52
71662;BME280;59500;49.588;18.018;2022-07-29T00:22:49;98237.13;;;16.84;69.37
71662;BME280;59500;49.588;18.018;2022-07-29T00:25:16;98237.31;;;16.76;68.98
71662;BME280;59500;49.588;18.018;2022-07-29T00:27:41;98235.06;;;16.80;69.14
71662;BME280;59500;49.588;18.018;2022-07-29T00:30:07;98228.44;;;16.82;69.44
71662;BME280;59500;49.588;18.018;2022-07-29T00:32:34;98235.50;;;16.83;68.97
71662;BME280;59500;49.588;18.018;2022-07-29T00:34:59;98232.41;;;16.86;68.89
71662;BME280;59500;49.588;18.018;2022-07-29T00:37:25;98240.66;;;16.85;68.62
71662;BME280;59500;49.588;18.018;2022-07-29T00:39:51;98233.19;;;16.80;68.35
71662;BME280;59500;49.588;18.018;2022-07-29T00:42:17;98241.78;;;16.69;68.91
71662;BME280;59500;49.588;18.018;2022-07-29T00:44:43;98241.53;;;16.57;69.42
71662;BME280;59500;49.588;18.018;2022-07-29T00:47:11;98234.06;;;16.52;70.02
71662;BME280;59500;49.588;18.018;2022-07-29T00:49:39;98236.56;;;16.54;69.63
71662;BME280;59500;49.588;18.018;2022-07-29T00:52:06;98230.16;;;16.55;69.90
71662;BME280;59500;49.588;18.018;2022-07-29T00:54:34;98230.97;;;16.55;70.03
71662;BME280;59500;49.588;18.018;2022-07-29T00:57:02;98225.56;;;16.49;70.07
71662;BME280;59500;49.588;18.018;2022-07-29T00:59:28;98225.56;;;16.49;70.00
71662;BME280;59500;49.588;18.018;2022-07-29T01:01:55;98226.78;;;16.46;69.73
71662;BME280;59500;49.588;18.018;2022-07-29T01:04:21;98225.97;;;16.46;69.60
71662;BME280;59500;49.588;18.018;2022-07-29T01:06:48;98226.59;;;16.48;70.04
71662;BME280;59500;49.588;18.018;2022-07-29T01:09:17;98219.97;;;16.44;70.46
71662;BME280;59500;49.588;18.018;2022-07-29T01:11:45;98219.34;;;16.42;70.56
71662;BME280;59500;49.588;18.018;2022-07-29T01:14:14;98216.41;;;16.37;70.96
71662;BME280;59500;49.588;18.018;2022-07-29T01:16:48;98211.66;;;16.32;70.71
71662;BME280;59500;49.588;18.018;2022-07-29T01:19:45;98211.00;;;16.30;71.02
71662;BME280;59500;49.588;18.018;2022-07-29T01:24:56;98204.16;;;16.21;70.73
71662;BME280;59500;49.588;18.018;2022-07-29T01:30:08;98203.06;;;16.15;71.48
71662;BME280;59500;49.588;18.018;2022-07-29T01:32:38;98205.28;;;16.11;71.30
71662;BME280;59500;49.588;18.018;2022-07-29T01:37:48;98220.53;;;16.04;71.54
71662;BME280;59500;49.588;18.018;2022-07-29T01:43:00;98224.63;;;16.00;71.55
71662;BME280;59500;49.588;18.018;2022-07-29T01:45:41;98220.09;;;16.01;71.80
71662;BME280;59500;49.588;18.018;2022-07-29T01:48:16;98211.19;;;16.00;71.26
71662;BME280;59500;49.588;18.018;2022-07-29T01:53:44;98211.66;;;16.04;71.29
71662;BME280;59500;49.588;18.018;2022-07-29T01:56:13;98212.66;;;16.03;71.46
71662;BME280;59500;49.588;18.018;2022-07-29T01:58:46;98212.47;;;16.04;71.36
71662;BME280;59500;49.588;18.018;2022-07-29T02:01:16;98210.63;;;16.05;71.66
71662;BME280;59500;49.588;18.018;2022-07-29T02:03:45;98213.88;;;16.00;71.77
71662;BME280;59500;49.588;18.018;2022-07-29T02:06:12;98212.25;;;15.99;72.10
71662;BME280;59500;49.588;18.018;2022-07-29T02:08:42;98209.94;;;15.96;72.32
71662;BME280;59500;49.588;18.018;2022-07-29T02:11:10;98213.47;;;15.97;72.19
71662;BME280;59500;49.588;18.018;2022-07-29T02:13:37;98204.97;;;15.93;71.85
71662;BME280;59500;49.588;18.018;2022-07-29T02:16:06;98205.09;;;15.85;72.02
71662;BME280;59500;49.588;18.018;2022-07-29T02:18:39;98211.03;;;15.80;72.42
71662;BME280;59500;49.588;18.018;2022-07-29T02:21:07;98208.56;;;15.79;72.25
71662;BME280;59500;49.588;18.018;2022-07-29T02:23:37;98204.81;;;15.73;72.78
71662;BME280;59500;49.588;18.018;2022-07-29T02:26:07;98200.16;;;15.67;72.98
71662;BME280;59500;49.588;18.018;2022-07-29T02:28:35;98198.72;;;15.64;73.67
71662;BME280;59500;49.588;18.018;2022-07-29T02:31:03;98206.50;;;15.59;73.12
71662;BME280;59500;49.588;18.018;2022-07-29T02:33:32;98207.91;;;15.55;73.68
71662;BME280;59500;49.588;18.018;2022-07-29T02:35:59;98200.88;;;15.54;74.20
71662;BME280;59500;49.588;18.018;2022-07-29T02:38:29;98208.72;;;15.56;73.72
71662;BME280;59500;49.588;18.018;2022-07-29T02:40:58;98207.34;;;15.60;74.17
71662;BME280;59500;49.588;18.018;2022-07-29T02:43:26;98211.47;;;15.62;73.29
71662;BME280;59500;49.588;18.018;2022-07-29T02:45:54;98203.44;;;15.62;73.51
71662;BME280;59500;49.588;18.018;2022-07-29T02:48:32;98202.44;;;15.63;73.45
71662;BME280;59500;49.588;18.018;2022-07-29T02:51:17;98195.84;;;15.66;73.33
71662;BME280;59500;49.588;18.018;2022-07-29T02:53:51;98191.59;;;15.71;73.27
71662;BME280;59500;49.588;18.018;2022-07-29T02:56:24;98192.22;;;15.73;73.45
71662;BME280;59500;49.588;18.018;2022-07-29T02:58:58;98201.53;;;15.78;73.62
71662;BME280;59500;49.588;18.018;2022-07-29T03:01:25;98200.53;;;15.79;73.54
71662;BME280;59500;49.588;18.018;2022-07-29T03:03:54;98197.63;;;15.80;72.71
71662;BME280;59500;49.588;18.018;2022-07-29T03:06:23;98192.72;;;15.84;72.78
71662;BME280;59500;49.588;18.018;2022-07-29T03:08:51;98195.84;;;15.87;72.94
71662;BME280;59500;49.588;18.018;2022-07-29T03:11:18;98198.97;;;15.91;72.66
71662;BME280;59500;49.588;18.018;2022-07-29T03:13:45;98203.50;;;15.90;72.68
71662;BME280;59500;49.588;18.018;2022-07-29T03:16:12;98206.19;;;15.90;72.38
71662;BME280;59500;49.588;18.018;2022-07-29T03:18:39;98212.56;;;15.89;72.94
71662;BME280;59500;49.588;18.018;2022-07-29T03:21:05;98209.88;;;15.89;72.76
71662;BME280;59500;49.588;18.018;2022-07-29T03:23:31;98204.16;;;15.92;72.96
71662;BME280;59500;49.588;18.018;2022-07-29T03:25:57;98199.00;;;15.98;72.99
71662;BME280;59500;49.588;18.018;2022-07-29T03:28:24;98202.16;;;16.01;72.98
71662;BME280;59500;49.588;18.018;2022-07-29T03:30:50;98199.50;;;16.08;72.32
71662;BME280;59500;49.588;18.018;2022-07-29T03:33:16;98204.16;;;16.21;72.45
71662;BME280;59500;49.588;18.018;2022-07-29T03:35:42;98199.69;;;16.34;72.05
71662;BME280;59500;49.588;18.018;2022-07-29T03:38:08;98194.66;;;16.60;71.01
71662;BME280;59500;49.588;18.018;2022-07-29T03:40:40;98196.03;;;16.84;70.28
71662;BME280;59500;49.588;18.018;2022-07-29T03:43:09;98189.44;;;16.93;69.36
71662;BME280;59500;49.588;18.018;2022-07-29T03:45:39;98189.69;;;16.98;69.14
71662;BME280;59500;49.588;18.018;2022-07-29T03:48:11;98195.88;;;16.99;68.72
71662;BME280;59500;49.588;18.018;2022-07-29T03:50:38;98197.28;;;16.88;68.46
71662;BME280;59500;49.588;18.018;2022-07-29T03:53:05;98190.59;;;16.77;68.34
71662;BME280;59500;49.588;18.018;2022-07-29T03:55:37;98187.44;;;16.67;68.28
71662;BME280;59500;49.588;18.018;2022-07-29T03:58:06;98191.13;;;16.59;69.37
71662;BME280;59500;49.588;18.018;2022-07-29T04:00:34;98192.78;;;16.60;68.75
71662;BME280;59500;49.588;18.018;2022-07-29T04:03:01;98189.91;;;16.62;69.50
71662;BME280;59500;49.588;18.018;2022-07-29T04:05:29;98199.78;;;16.89;68.57
71662;BME280;59500;49.588;18.018;2022-07-29T04:07:55;98204.56;;;17.01;68.04
71662;BME280;59500;49.588;18.018;2022-07-29T04:10:21;98194.19;;;16.91;68.80
71662;BME280;59500;49.588;18.018;2022-07-29T04:12:47;98188.41;;;16.87;68.80
71662;BME280;59500;49.588;18.018;2022-07-29T04:15:12;98187.84;;;17.05;68.58
71662;BME280;59500;49.588;18.018;2022-07-29T04:17:38;98199.06;;;17.35;67.81
71662;BME280;59500;49.588;18.018;2022-07-29T04:20:05;98192.75;;;17.83;66.75
71662;BME280;59500;49.588;18.018;2022-07-29T04:22:30;98194.16;;;18.26;65.57
71662;BME280;59500;49.588;18.018;2022-07-29T04:24:56;98192.38;;;18.78;63.52
71662;BME280;59500;49.588;18.018;2022-07-29T04:27:22;98192.75;;;18.75;62.83
71662;BME280;59500;49.588;18.018;2022-07-29T04:29:48;98184.28;;;18.71;62.44
71662;BME280;59500;49.588;18.018;2022-07-29T04:32:14;98191.75;;;18.76;62.25
71662;BME280;59500;49.588;18.018;2022-07-29T04:34:40;98196.97;;;18.51;62.48
71662;BME280;59500;49.588;18.018;2022-07-29T04:37:05;98194.56;;;18.36;63.20
71662;BME280;59500;49.588;18.018;2022-07-29T04:39:31;98193.13;;;18.27;63.85
71662;BME280;59500;49.588;18.018;2022-07-29T04:41:57;98191.81;;;18.49;64.20
71662;BME280;59500;49.588;18.018;2022-07-29T04:44:23;98185.66;;;18.35;63.61
71662;BME280;59500;49.588;18.018;2022-07-29T04:46:49;98182.78;;;18.10;64.09
71662;BME280;59500;49.588;18.018;2022-07-29T04:49:15;98182.59;;;17.98;64.66
71662;BME280;59500;49.588;18.018;2022-07-29T04:51:40;98190.47;;;17.93;64.62
71662;BME280;59500;49.588;18.018;2022-07-29T04:54:06;98178.44;;;17.76;64.86
71662;BME280;59500;49.588;18.018;2022-07-29T04:56:32;98178.44;;;17.49;65.12
71662;BME280;59500;49.588;18.018;2022-07-29T04:58:58;98187.50;;;17.42;65.45
71662;BME280;59500;49.588;18.018;2022-07-29T05:01:24;98185.22;;;17.38;65.57
71662;BME280;59500;49.588;18.018;2022-07-29T05:03:50;98191.88;;;17.49;65.77
71662;BME280;59500;49.588;18.018;2022-07-29T05:06:15;98196.44;;;17.89;65.16
71662;BME280;59500;49.588;18.018;2022-07-29T05:08:41;98181.53;;;18.06;64.04
71662;BME280;59500;49.588;18.018;2022-07-29T05:11:08;98186.28;;;18.17;64.04
71662;BME280;59500;49.588;18.018;2022-07-29T05:13:34;98190.19;;;18.35;63.63
71662;BME280;59500;49.588;18.018;2022-07-29T05:15:59;98189.75;;;18.51;63.02
71662;BME280;59500;49.588;18.018;2022-07-29T05:18:25;98185.97;;;18.59;62.38
71662;BME280;59500;49.588;18.018;2022-07-29T05:20:51;98187.22;;;18.63;63.11
71662;BME280;59500;49.588;18.018;2022-07-29T05:23:17;98205.63;;;18.66;62.62
71662;BME280;59500;49.588;18.018;2022-07-29T05:25:43;98192.16;;;18.79;62.28
71662;BME280;59500;49.588;18.018;2022-07-29T05:28:09;98198.09;;;18.95;61.76
71662;BME280;59500;49.588;18.018;2022-07-29T05:30:35;98191.84;;;19.01;61.99
71662;BME280;59500;49.588;18.018;2022-07-29T05:33:01;98191.81;;;19.08;61.13
71662;BME280;59500;49.588;18.018;2022-07-29T05:35:27;98201.13;;;19.12;61.42
71662;BME280;59500;49.588;18.018;2022-07-29T05:37:52;98204.91;;;19.11;61.67
71662;BME280;59500;49.588;18.018;2022-07-29T05:40:18;98193.34;;;19.35;61.72
71662;BME280;59500;49.588;18.018;2022-07-29T05:42:44;98202.16;;;20.50;59.63
71662;BME280;59500;49.588;18.018;2022-07-29T05:45:10;98194.56;;;22.09;55.54
71662;BME280;59500;49.588;18.018;2022-07-29T05:47:36;98193.25;;;23.52;51.26
71662;BME280;59500;49.588;18.018;2022-07-29T05:50:02;98197.00;;;24.69;47.39
71662;BME280;59500;49.588;18.018;2022-07-29T05:52:28;98192.06;;;24.66;46.81
71662;BME280;59500;49.588;18.018;2022-07-29T05:54:54;98187.19;;;25.12;46.07
71662;BME280;59500;49.588;18.018;2022-07-29T05:57:23;98188.22;;;25.88;44.32
71662;BME280;59500;49.588;18.018;2022-07-29T05:59:50;98183.84;;;26.61;42.35
71662;BME280;59500;49.588;18.018;2022-07-29T06:02:17;98184.50;;;26.84;41.13
71662;BME280;59500;49.588;18.018;2022-07-29T06:04:43;98191.34;;;26.87;41.90
71662;BME280;59500;49.588;18.018;2022-07-29T06:07:09;98201.25;;;27.08;40.71
71662;BME280;59500;49.588;18.018;2022-07-29T06:09:37;98200.16;;;26.14;41.83
71662;BME280;59500;49.588;18.018;2022-07-29T06:12:03;98205.34;;;25.56;42.61
71662;BME280;59500;49.588;18.018;2022-07-29T06:14:29;98202.00;;;24.77;44.67
71662;BME280;59500;49.588;18.018;2022-07-29T06:16:56;98208.19;;;24.95;44.97
71662;BME280;59500;49.588;18.018;2022-07-29T06:19:21;98198.78;;;25.25;43.82
71662;BME280;59500;49.588;18.018;2022-07-29T06:21:47;98196.03;;;25.79;43.31
71662;BME280;59500;49.588;18.018;2022-07-29T06:24:15;98196.53;;;25.71;43.06
71662;BME280;59500;49.588;18.018;2022-07-29T06:26:41;98197.97;;;25.24;44.14
71662;BME280;59500;49.588;18.018;2022-07-29T06:29:09;98205.09;;;24.86;45.08
71662;BME280;59500;49.588;18.018;2022-07-29T06:31:35;98206.38;;;24.78;45.16
71662;BME280;59500;49.588;18.018;2022-07-29T06:34:01;98211.47;;;24.97;44.70
71662;BME280;59500;49.588;18.018;2022-07-29T06:36:26;98209.09;;;25.50;44.20
71662;BME280;59500;49.588;18.018;2022-07-29T06:38:52;98206.50;;;25.33;44.16
71662;BME280;59500;49.588;18.018;2022-07-29T06:41:18;98211.56;;;25.02;45.28
71662;BME280;59500;49.588;18.018;2022-07-29T06:43:46;98220.91;;;24.67;45.73
71662;BME280;59500;49.588;18.018;2022-07-29T06:46:15;98223.84;;;24.27;45.92
71662;BME280;59500;49.588;18.018;2022-07-29T06:48:42;98222.22;;;24.09;48.09
71662;BME280;59500;49.588;18.018;2022-07-29T06:51:09;98222.31;;;25.14;45.66
71662;BME280;59500;49.588;18.018;2022-07-29T06:53:35;98206.28;;;26.31;44.28
71662;BME280;59500;49.588;18.018;2022-07-29T06:56:07;98206.66;;;26.98;42.38
71662;BME280;59500;49.588;18.018;2022-07-29T06:58:32;98204.38;;;27.53;40.34
71662;BME280;59500;49.588;18.018;2022-07-29T07:01:03;98202.75;;;27.67;39.87
71662;BME280;59500;49.588;18.018;2022-07-29T07:03:50;98201.66;;;27.78;39.68
71662;BME280;59500;49.588;18.018;2022-07-29T07:06:16;98203.59;;;28.14;38.72
71662;BME280;59500;49.588;18.018;2022-07-29T07:08:42;98195.72;;;27.97;39.28
71662;BME280;59500;49.588;18.018;2022-07-29T07:11:10;98199.22;;;27.77;39.71
71662;BME280;59500;49.588;18.018;2022-07-29T07:13:57;98203.88;;;28.27;38.55
71662;BME280;59500;49.588;18.018;2022-07-29T07:16:22;98196.09;;;28.86;37.77
71662;BME280;59500;49.588;18.018;2022-07-29T07:18:49;98200.13;;;29.14;37.13
71662;BME280;59500;49.588;18.018;2022-07-29T07:21:18;98194.81;;;29.28;36.56
71662;BME280;59500;49.588;18.018;2022-07-29T07:23:44;98202.44;;;28.76;37.45
71662;BME280;59500;49.588;18.018;2022-07-29T07:26:10;98198.38;;;28.58;37.81
71662;BME280;59500;49.588;18.018;2022-07-29T07:28:36;98194.84;;;28.47;38.08
71662;BME280;59500;49.588;18.018;2022-07-29T07:31:02;98195.94;;;28.41;38.18
71662;BME280;59500;49.588;18.018;2022-07-29T07:33:28;98197.53;;;28.58;37.58
71662;BME280;59500;49.588;18.018;2022-07-29T07:35:54;98199.09;;;28.84;37.46
71662;BME280;59500;49.588;18.018;2022-07-29T07:38:26;98208.91;;;28.96;37.04
71662;BME280;59500;49.588;18.018;2022-07-29T07:41:07;98201.97;;;29.24;36.00
71662;BME280;59500;49.588;18.018;2022-07-29T07:43:50;98214.25;;;29.32;37.13
71662;BME280;59500;49.588;18.018;2022-07-29T07:46:40;98210.44;;;29.27;36.90
71662;BME280;59500;49.588;18.018;2022-07-29T07:49:11;98213.72;;;28.49;37.34
71662;BME280;59500;49.588;18.018;2022-07-29T07:51:39;98205.22;;;27.63;38.58
71662;BME280;59500;49.588;18.018;2022-07-29T07:54:25;98208.38;;;27.19;39.95
71662;BME280;59500;49.588;18.018;2022-07-29T07:56:52;98204.88;;;26.66;41.46
71662;BME280;59500;49.588;18.018;2022-07-29T07:59:20;98206.25;;;26.26;42.13
71662;BME280;59500;49.588;18.018;2022-07-29T08:01:46;98209.56;;;26.33;42.28
71662;BME280;59500;49.588;18.018;2022-07-29T08:04:16;98201.13;;;26.82;42.64
71662;BME280;59500;49.588;18.018;2022-07-29T08:07:08;98218.88;;;26.85;40.93
71662;BME280;59500;49.588;18.018;2022-07-29T08:10:20;98218.13;;;26.52;42.10
71662;BME280;59500;49.588;18.018;2022-07-29T08:13:15;98214.78;;;26.40;42.67
71662;BME280;59500;49.588;18.018;2022-07-29T08:16:09;98215.31;;;25.99;42.56
71662;BME280;59500;49.588;18.018;2022-07-29T08:18:42;98219.91;;;25.67;44.69
71662;BME280;59500;49.588;18.018;2022-07-29T08:21:31;98216.97;;;25.73;44.95
71662;BME280;59500;49.588;18.018;2022-07-29T08:23:57;98213.00;;;25.86;43.95
71662;BME280;59500;49.588;18.018;2022-07-29T08:26:23;98203.38;;;25.78;44.75
71662;BME280;59500;49.588;18.018;2022-07-29T08:28:49;98203.22;;;26.22;45.10
71662;BME280;59500;49.588;18.018;2022-07-29T08:31:16;98204.97;;;26.81;42.30
71662;BME280;59500;49.588;18.018;2022-07-29T08:33:42;98201.19;;;26.93;41.74
71662;BME280;59500;49.588;18.018;2022-07-29T08:36:08;98198.47;;;26.98;42.51
71662;BME280;59500;49.588;18.018;2022-07-29T08:38:34;98199.03;;;27.05;41.55
71662;BME280;59500;49.588;18.018;2022-07-29T08:41:01;98203.94;;;27.03;41.73
71662;BME280;59500;49.588;18.018;2022-07-29T08:43:30;98201.13;;;27.61;41.94
71662;BME280;59500;49.588;18.018;2022-07-29T08:45:56;98192.03;;;28.73;40.04
71662;BME280;59500;49.588;18.018;2022-07-29T08:48:23;98196.09;;;29.46;37.98
71662;BME280;59500;49.588;18.018;2022-07-29T08:50:55;98186.41;;;29.98;36.96
71662;BME280;59500;49.588;18.018;2022-07-29T08:53:21;98192.44;;;30.59;35.40
71662;BME280;59500;49.588;18.018;2022-07-29T08:55:49;98193.31;;;30.78;35.28
71662;BME280;59500;49.588;18.018;2022-07-29T08:58:18;98189.25;;;30.70;35.76
71662;BME280;59500;49.588;18.018;2022-07-29T09:00:51;98190.66;;;31.16;35.23
71662;BME280;59500;49.588;18.018;2022-07-29T09:03:25;98190.47;;;31.69;33.68
71662;BME280;59500;49.588;18.018;2022-07-29T09:05:52;98187.56;;;31.61;33.87
71662;BME280;59500;49.588;18.018;2022-07-29T09:08:21;98186.47;;;31.43;34.11
71662;BME280;59500;49.588;18.018;2022-07-29T09:11:07;98184.38;;;31.53;34.24
71662;BME280;59500;49.588;18.018;2022-07-29T09:13:34;98181.47;;;32.15;33.87
71662;BME280;59500;49.588;18.018;2022-07-29T09:16:00;98188.03;;;32.47;33.06
71662;BME280;59500;49.588;18.018;2022-07-29T09:18:41;98181.75;;;32.74;33.23
71662;BME280;59500;49.588;18.018;2022-07-29T09:21:20;98184.94;;;32.82;31.84
71662;BME280;59500;49.588;18.018;2022-07-29T09:24:08;98191.19;;;32.41;32.55
71662;BME280;59500;49.588;18.018;2022-07-29T09:26:40;98187.78;;;32.63;32.73
71662;BME280;59500;49.588;18.018;2022-07-29T09:29:11;98182.16;;;32.68;32.01
71662;BME280;59500;49.588;18.018;2022-07-29T09:31:40;98182.13;;;32.26;32.80
71662;BME280;59500;49.588;18.018;2022-07-29T09:34:07;98179.72;;;32.52;33.09
71662;BME280;59500;49.588;18.018;2022-07-29T09:36:44;98167.59;;;33.09;31.49
71662;BME280;59500;49.588;18.018;2022-07-29T09:39:10;98168.72;;;32.66;31.39
71662;BME280;59500;49.588;18.018;2022-07-29T09:41:46;98166.78;;;31.87;32.84
71662;BME280;59500;49.588;18.018;2022-07-29T09:44:12;98160.97;;;31.56;33.79
71662;BME280;59500;49.588;18.018;2022-07-29T09:49:55;98157.69;;;31.35;33.83
71662;BME280;59500;49.588;18.018;2022-07-29T09:52:21;98155.41;;;31.04;34.08
71662;BME280;59500;49.588;18.018;2022-07-29T09:54:47;98155.44;;;30.75;35.14
71662;BME280;59500;49.588;18.018;2022-07-29T09:57:26;98150.13;;;30.60;35.29
71662;BME280;59500;49.588;18.018;2022-07-29T10:00:02;98146.94;;;30.23;35.61
71662;BME280;59500;49.588;18.018;2022-07-29T10:02:34;98151.53;;;30.04;35.94
71662;BME280;59500;49.588;18.018;2022-07-29T10:05:03;98144.34;;;29.79;36.24
71662;BME280;59500;49.588;18.018;2022-07-29T10:07:50;98152.84;;;29.82;36.55
71662;BME280;59500;49.588;18.018;2022-07-29T10:10:21;98144.34;;;29.79;36.77
71662;BME280;59500;49.588;18.018;2022-07-29T10:15:22;98145.41;;;29.43;37.59
71662;BME280;59500;49.588;18.018;2022-07-29T10:17:53;98140.84;;;29.28;37.77
71662;BME280;59500;49.588;18.018;2022-07-29T10:20:20;98137.13;;;29.09;38.13
71662;BME280;59500;49.588;18.018;2022-07-29T10:22:48;98144.41;;;28.74;38.47
71662;BME280;59500;49.588;18.018;2022-07-29T10:25:15;98141.72;;;28.64;39.50
71662;BME280;59500;49.588;18.018;2022-07-29T10:27:45;98141.25;;;29.12;38.47
71662;BME280;59500;49.588;18.018;2022-07-29T10:30:15;98137.53;;;29.76;37.55
71662;BME280;59500;49.588;18.018;2022-07-29T10:43:49;98124.09;;;31.76;33.67
71662;BME280;59500;49.588;18.018;2022-07-29T10:46:17;98117.66;;;31.48;34.27
71662;BME280;59500;49.588;18.018;2022-07-29T10:49:05;98116.41;;;31.40;33.79
71662;BME280;59500;49.588;18.018;2022-07-29T10:54:19;98121.78;;;30.45;35.29
71662;BME280;59500;49.588;18.018;2022-07-29T11:05:07;98121.16;;;30.97;34.81
71662;BME280;59500;49.588;18.018;2022-07-29T11:07:33;98115.84;;;30.81;35.05
71662;BME280;59500;49.588;18.018;2022-07-29T11:15:13;98106.44;;;30.44;35.81
71662;BME280;59500;49.588;18.018;2022-07-29T11:22:58;98101.75;;;30.45;35.98
71662;BME280;59500;49.588;18.018;2022-07-29T11:25:24;98107.50;;;30.19;36.54
71662;BME280;59500;49.588;18.018;2022-07-29T11:28:09;98106.59;;;30.29;36.52
71662;BME280;59500;49.588;18.018;2022-07-29T11:30:50;98096.47;;;30.48;36.15
71662;BME280;59500;49.588;18.018;2022-07-29T11:33:32;98094.50;;;30.54;36.30
71662;BME280;59500;49.588;18.018;2022-07-29T11:36:11;98110.75;;;30.21;36.55
71662;BME280;59500;49.588;18.018;2022-07-29T11:38:37;98098.41;;;30.48;36.36
71662;BME280;59500;49.588;18.018;2022-07-29T11:41:28;98093.19;;;30.70;35.92
71662;BME280;59500;49.588;18.018;2022-07-29T11:43:59;98098.34;;;30.53;36.08
71662;BME280;59500;49.588;18.018;2022-07-29T11:49:11;98106.22;;;29.48;38.32
71662;BME280;59500;49.588;18.018;2022-07-29T11:51:38;98103.84;;;29.36;38.31
71662;BME280;59500;49.588;18.018;2022-07-29T11:54:05;98093.53;;;29.23;38.28
71662;BME280;59500;49.588;18.018;2022-07-29T11:56:31;98108.78;;;28.84;38.77
71662;BME280;59500;49.588;18.018;2022-07-29T11:59:07;98108.38;;;28.57;40.33
71662;BME280;59500;49.588;18.018;2022-07-29T12:01:33;98102.38;;;28.50;39.67
71662;BME280;59500;49.588;18.018;2022-07-29T12:04:06;98107.88;;;28.29;40.79
71662;BME280;59500;49.588;18.018;2022-07-29T12:06:34;98105.72;;;28.21;40.61
71662;BME280;59500;49.588;18.018;2022-07-29T12:09:00;98110.66;;;28.14;40.70
71662;BME280;59500;49.588;18.018;2022-07-29T12:11:31;98111.78;;;28.08;40.73
71662;BME280;59500;49.588;18.018;2022-07-29T12:13:57;98106.88;;;27.89;40.65
71662;BME280;59500;49.588;18.018;2022-07-29T12:16:37;98104.66;;;27.60;41.39
71662;BME280;59500;49.588;18.018;2022-07-29T12:19:04;98106.03;;;27.42;42.20
71662;BME280;59500;49.588;18.018;2022-07-29T12:21:47;98105.75;;;27.29;42.26
71662;BME280;59500;49.588;18.018;2022-07-29T12:24:14;98100.00;;;27.15;42.78
71662;BME280;59500;49.588;18.018;2022-07-29T12:26:57;98099.41;;;27.08;43.11
71662;BME280;59500;49.588;18.018;2022-07-29T12:29:24;98099.41;;;26.97;42.78
71662;BME280;59500;49.588;18.018;2022-07-29T12:31:54;98101.28;;;26.87;43.40
71662;BME280;59500;49.588;18.018;2022-07-29T12:34:23;98097.16;;;26.79;43.14
71662;BME280;59500;49.588;18.018;2022-07-29T12:36:50;98099.56;;;26.65;43.86
71662;BME280;59500;49.588;18.018;2022-07-29T12:39:16;98101.19;;;26.61;44.49
71662;BME280;59500;49.588;18.018;2022-07-29T12:41:44;98097.91;;;26.59;44.18
71662;BME280;59500;49.588;18.018;2022-07-29T12:44:10;98095.47;;;26.68;44.05
71662;BME280;59500;49.588;18.018;2022-07-29T12:46:36;98095.81;;;26.81;44.21
71662;BME280;59500;49.588;18.018;2022-07-29T12:49:03;98089.00;;;26.84;44.23
71662;BME280;59500;49.588;18.018;2022-07-29T12:52:34;98090.56;;;26.70;43.89
71662;BME280;59500;49.588;18.018;2022-07-29T12:54:35;98088.00;;;26.42;43.92
71662;BME280;59500;49.588;18.018;2022-07-29T12:57:01;98090.97;;;26.36;44.09
71662;BME280;59500;49.588;18.018;2022-07-29T12:59:26;98082.53;;;26.42;45.19
71662;BME280;59500;49.588;18.018;2022-07-29T13:01:54;98084.31;;;26.64;45.68
71662;BME280;59500;49.588;18.018;2022-07-29T13:04:32;98083.25;;;26.75;45.39
71662;BME280;59500;49.588;18.018;2022-07-29T13:07:06;98081.06;;;26.88;44.62
71662;BME280;59500;49.588;18.018;2022-07-29T13:09:38;98089.00;;;26.89;43.84
71662;BME280;59500;49.588;18.018;2022-07-29T13:12:14;98078.34;;;26.88;44.28
71662;BME280;59500;49.588;18.018;2022-07-29T13:14:48;98089.03;;;26.99;44.21
71662;BME280;59500;49.588;18.018;2022-07-29T13:17:15;98085.19;;;26.90;43.97
71662;BME280;59500;49.588;18.018;2022-07-29T13:22:15;98084.72;;;27.19;44.81
71662;BME280;59500;49.588;18.018;2022-07-29T13:24:50;98075.16;;;27.32;44.03
71662;BME280;59500;49.588;18.018;2022-07-29T13:27:20;98075.47;;;27.45;43.61
71662;BME280;59500;49.588;18.018;2022-07-29T13:29:47;98073.00;;;27.54;43.65
71662;BME280;59500;49.588;18.018;2022-07-29T13:32:13;98071.63;;;27.57;42.97
71662;BME280;59500;49.588;18.018;2022-07-29T13:34:40;98064.81;;;27.54;43.38
71662;BME280;59500;49.588;18.018;2022-07-29T13:37:06;98065.34;;;27.61;43.01
71662;BME280;59500;49.588;18.018;2022-07-29T13:39:32;98063.72;;;27.50;42.78
71662;BME280;59500;49.588;18.018;2022-07-29T13:41:58;98065.63;;;27.44;43.93
71662;BME280;59500;49.588;18.018;2022-07-29T13:44:24;98064.25;;;27.47;44.49
71662;BME280;59500;49.588;18.018;2022-07-29T13:46:50;98063.44;;;27.57;43.75
71662;BME280;59500;49.588;18.018;2022-07-29T13:49:16;98058.25;;;27.50;43.71
71662;BME280;59500;49.588;18.018;2022-07-29T13:51:42;98051.69;;;27.36;43.69
71662;BME280;59500;49.588;18.018;2022-07-29T13:54:08;98053.84;;;27.13;44.20
71662;BME280;59500;49.588;18.018;2022-07-29T13:56:36;98051.63;;;26.90;44.47
71662;BME280;59500;49.588;18.018;2022-07-29T13:59:02;98043.94;;;26.76;45.18